createdAt,value
2023-01-30T00:01:48.479Z,98714.00
2023-01-30T00:04:17.596Z,98711.25
2023-01-30T00:06:46.855Z,98711.25
2023-01-30T00:09:16.289Z,98707.63
2023-01-30T00:11:47.118Z,98701.41
2023-01-30T00:14:17.658Z,98698.88
2023-01-30T00:16:46.744Z,98687.38
2023-01-30T00:19:15.807Z,98688.88
2023-01-30T00:21:45.350Z,98687.38
2023-01-30T00:24:14.586Z,98686.47
2023-01-30T00:26:43.689Z,98684.66
2023-01-30T00:29:12.759Z,98689.03
2023-01-30T00:31:43.281Z,98685.56
2023-01-30T00:34:12.493Z,98680.09
2023-01-30T00:36:42.227Z,98673.19
2023-01-30T00:39:11.238Z,98663.16
2023-01-30T00:41:56.689Z,98660.25
2023-01-30T00:44:43.256Z,98657.91
2023-01-30T00:47:13.680Z,98660.25
2023-01-30T00:49:43.577Z,98656.06
2023-01-30T00:52:12.550Z,98656.06
2023-01-30T00:54:41.838Z,98653.34
2023-01-30T00:57:10.778Z,98648.25
2023-01-30T00:59:39.792Z,98650.06
2023-01-30T01:02:08.935Z,98639.84
2023-01-30T01:04:43.614Z,98628.22
2023-01-30T01:07:13.617Z,98633.31
2023-01-30T01:09:43.787Z,98621.31
2023-01-30T01:12:12.915Z,98622.38
2023-01-30T01:14:42.080Z,98626.56
2023-01-30T01:17:11.678Z,98627.47
2023-01-30T01:19:42.052Z,98619.47
2023-01-30T01:22:11.061Z,98612.94
2023-01-30T01:24:40.061Z,98612.19
2023-01-30T01:27:10.517Z,98606.56
2023-01-30T01:29:41.473Z,98599.44
2023-01-30T01:32:10.471Z,98600.56
2023-01-30T01:34:39.823Z,98596.19
2023-01-30T01:37:10.510Z,98592.91
2023-01-30T01:39:56.009Z,98588.16
2023-01-30T01:42:27.147Z,98587.06
2023-01-30T01:45:04.565Z,98587.97
2023-01-30T01:47:35.462Z,98581.22
2023-01-30T01:50:06.941Z,98580.69
2023-01-30T01:52:38.423Z,98576.13
2023-01-30T01:55:08.743Z,98575.22
2023-01-30T01:57:43.158Z,98578.13
2023-01-30T02:00:14.972Z,98563.94
2023-01-30T02:02:47.648Z,98558.09
2023-01-30T02:05:19.484Z,98555.72
2023-01-30T02:07:54.327Z,98548.09
2023-01-30T02:10:26.931Z,98540.44
2023-01-30T02:12:55.908Z,98536.59
2023-01-30T02:15:25.042Z,98526.25
2023-01-30T02:17:54.092Z,98520.41
2023-01-30T02:20:32.481Z,98523.50
2023-01-30T02:23:27.398Z,98530.59
2023-01-30T02:26:39.993Z,98521.50
2023-01-30T02:29:44.694Z,98517.84
2023-01-30T02:32:26.250Z,98510.94
2023-01-30T02:35:01.190Z,98514.25
2023-01-30T02:37:45.577Z,98511.31
2023-01-30T02:40:28.059Z,98508.75
2023-01-30T02:43:07.468Z,98513.66
2023-01-30T02:45:46.204Z,98507.13
2023-01-30T02:48:22.758Z,98504.72
2023-01-30T02:50:57.364Z,98497.81
2023-01-30T02:53:26.418Z,98489.28
2023-01-30T02:55:55.457Z,98490.56
2023-01-30T02:58:28.139Z,98493.84
2023-01-30T03:01:33.166Z,98482.56
2023-01-30T03:04:26.616Z,98486.91
2023-01-30T03:07:27.400Z,98482.53
2023-01-30T03:10:05.742Z,98481.03
2023-01-30T03:12:48.806Z,98474.13
2023-01-30T03:15:24.722Z,98478.69
2023-01-30T03:17:54.761Z,98466.09
2023-01-30T03:20:26.895Z,98463.00
2023-01-30T03:23:01.932Z,98466.47
2023-01-30T03:25:33.002Z,98451.72
2023-01-30T03:28:04.525Z,98449.00
2023-01-30T03:30:33.996Z,98443.00
2023-01-30T03:33:09.827Z,98447.56
2023-01-30T03:35:43.394Z,98435.31
2023-01-30T03:38:14.983Z,98429.63
2023-01-30T03:40:44.780Z,98434.03
2023-01-30T03:43:13.960Z,98422.00
2023-01-30T03:45:43.902Z,98414.34
2023-01-30T03:48:12.946Z,98415.09
2023-01-30T03:50:43.405Z,98406.69
2023-01-30T03:53:14.119Z,98398.34
2023-01-30T03:55:43.171Z,98390.69
2023-01-30T03:58:21.435Z,98395.59
2023-01-30T04:00:50.848Z,98396.88
2023-01-30T04:03:19.923Z,98402.91
2023-01-30T04:05:50.316Z,98395.63
2023-01-30T04:08:19.427Z,98395.47
2023-01-30T04:10:49.212Z,98384.72
2023-01-30T04:13:18.340Z,98379.78
2023-01-30T04:15:47.486Z,98383.22
2023-01-30T04:18:37.110Z,98377.41
2023-01-30T04:21:16.370Z,98382.84
2023-01-30T04:23:45.777Z,98369.94
2023-01-30T04:26:15.083Z,98371.75
2023-01-30T04:28:45.093Z,98369.94
2023-01-30T04:31:15.810Z,98369.19
2023-01-30T04:34:05.196Z,98355.88
2023-01-30T04:36:37.124Z,98348.03
2023-01-30T04:39:06.377Z,98347.69
2023-01-30T04:41:36.029Z,98353.50
2023-01-30T04:44:05.260Z,98347.50
2023-01-30T04:46:57.176Z,98343.88
2023-01-30T04:49:26.234Z,98345.50
2023-01-30T04:51:57.524Z,98345.44
2023-01-30T04:54:27.240Z,98330.50
2023-01-30T04:56:56.344Z,98335.44
2023-01-30T04:59:25.735Z,98334.69
2023-01-30T05:01:56.650Z,98326.88
2023-01-30T05:04:25.675Z,98334.66
2023-01-30T05:06:54.619Z,98326.50
2023-01-30T05:09:24.990Z,98322.09
2023-01-30T05:11:53.932Z,98309.19
2023-01-30T05:14:22.847Z,98303.19
2023-01-30T05:16:51.830Z,98297.84
2023-01-30T05:19:20.990Z,98310.09
2023-01-30T05:21:50.166Z,98294.78
2023-01-30T05:24:19.175Z,98297.34
2023-01-30T05:26:49.582Z,98288.56
2023-01-30T05:29:18.653Z,98291.50
2023-01-30T05:31:47.975Z,98289.53
2023-01-30T05:34:17.035Z,98276.59
2023-01-30T05:36:46.058Z,98274.03
2023-01-30T05:39:15.161Z,98271.84
2023-01-30T05:41:44.383Z,98263.44
2023-01-30T05:44:15.077Z,98261.09
2023-01-30T05:46:44.209Z,98256.88
2023-01-30T05:49:13.191Z,98240.50
2023-01-30T05:51:42.229Z,98237.03
2023-01-30T05:54:11.254Z,98233.59
2023-01-30T05:56:40.307Z,98225.19
2023-01-30T05:59:12.456Z,98232.28
2023-01-30T06:01:42.956Z,98222.66
2023-01-30T06:04:12.085Z,98215.00
2023-01-30T06:06:41.255Z,98230.63
2023-01-30T06:09:12.483Z,98223.72
2023-01-30T06:11:41.566Z,98222.44
2023-01-30T06:14:10.641Z,98216.59
2023-01-30T06:16:39.701Z,98224.72
2023-01-30T06:19:11.037Z,98221.22
2023-01-30T06:21:40.129Z,98223.00
2023-01-30T06:24:09.290Z,98223.34
2023-01-30T06:26:38.434Z,98212.59
2023-01-30T06:29:07.592Z,98214.72
2023-01-30T06:31:37.013Z,98213.09
2023-01-30T06:34:06.016Z,98212.66
2023-01-30T06:36:36.363Z,98212.81
2023-01-30T06:39:05.527Z,98212.09
2023-01-30T06:41:34.601Z,98216.63
2023-01-30T06:44:03.571Z,98214.06
2023-01-30T06:46:32.604Z,98210.94
2023-01-30T06:49:01.718Z,98211.50
2023-01-30T06:51:30.799Z,98204.59
2023-01-30T06:54:01.243Z,98211.09
2023-01-30T06:56:30.274Z,98214.00
2023-01-30T06:58:59.340Z,98203.22
2023-01-30T07:01:29.084Z,98198.53
2023-01-30T07:03:58.161Z,98196.88
2023-01-30T07:06:28.256Z,98203.78
2023-01-30T07:08:58.801Z,98190.78
2023-01-30T07:11:29.800Z,98202.31
2023-01-30T07:13:59.008Z,98194.81
2023-01-30T07:16:29.640Z,98190.03
2023-01-30T07:18:58.871Z,98188.66
2023-01-30T07:21:28.543Z,98192.09
2023-01-30T07:23:57.990Z,98183.69
2023-01-30T07:26:29.931Z,98179.47
2023-01-30T07:29:04.551Z,98184.19
2023-01-30T07:31:33.825Z,98180.00
2023-01-30T07:34:03.194Z,98190.84
2023-01-30T07:36:33.794Z,98180.16
2023-01-30T07:39:02.797Z,98175.84
2023-01-30T07:41:33.513Z,98171.50
2023-01-30T07:44:02.994Z,98171.66
2023-01-30T07:46:35.301Z,98174.38
2023-01-30T07:49:04.931Z,98169.28
2023-01-30T07:51:34.701Z,98149.91
2023-01-30T07:54:04.224Z,98151.63
2023-01-30T07:56:34.822Z,98142.91
2023-01-30T07:59:05.790Z,98146.50
2023-01-30T08:01:35.178Z,98142.94
2023-01-30T08:04:04.373Z,98137.50
2023-01-30T08:06:37.373Z,98139.31
2023-01-30T08:09:06.960Z,98133.63
2023-01-30T08:11:37.436Z,98131.97
2023-01-30T08:14:06.792Z,98130.66
2023-01-30T08:16:35.966Z,98132.47
2023-01-30T08:19:06.866Z,98126.31
2023-01-30T08:21:35.896Z,98129.47
2023-01-30T08:24:05.308Z,98114.78
2023-01-30T08:26:34.336Z,98116.34
2023-01-30T08:29:04.811Z,98102.84
2023-01-30T08:31:33.937Z,98110.94
2023-01-30T08:34:02.971Z,98108.72
2023-01-30T08:36:32.131Z,98100.47
2023-01-30T08:39:01.124Z,98098.38
2023-01-30T08:41:30.276Z,98090.25
2023-01-30T08:43:59.278Z,98100.19
2023-01-30T08:46:29.684Z,98088.16
2023-01-30T08:48:58.917Z,98084.91
2023-01-30T08:51:28.047Z,98079.19
2023-01-30T08:53:57.022Z,98076.50
2023-01-30T08:56:26.271Z,98079.06
2023-01-30T08:58:55.479Z,98069.84
2023-01-30T09:01:24.496Z,98062.69
2023-01-30T09:03:54.883Z,98073.81
2023-01-30T09:06:26.091Z,98061.69
2023-01-30T09:08:55.331Z,98054.00
2023-01-30T09:11:24.309Z,98051.72
2023-01-30T09:13:53.285Z,98055.16
2023-01-30T09:16:22.301Z,98046.16
2023-01-30T09:18:51.326Z,98044.03
2023-01-30T09:21:22.357Z,98040.13
2023-01-30T09:23:51.474Z,98043.16
2023-01-30T09:26:20.507Z,98038.94
2023-01-30T09:28:49.514Z,98041.34
2023-01-30T09:31:18.638Z,98032.03
2023-01-30T09:33:47.672Z,98026.59
2023-01-30T09:36:16.866Z,98024.81
2023-01-30T09:38:47.268Z,98009.47
2023-01-30T09:41:34.480Z,98007.09
2023-01-30T09:44:20.673Z,98005.88
2023-01-30T09:47:01.012Z,98000.03
2023-01-30T09:49:42.808Z,97990.22
2023-01-30T09:52:24.027Z,97985.41
2023-01-30T09:54:59.782Z,97980.44
2023-01-30T09:57:28.974Z,97978.78
2023-01-30T10:00:04.204Z,97968.28
2023-01-30T10:02:48.864Z,97966.16
2023-01-30T10:05:18.265Z,97958.03
2023-01-30T10:08:02.104Z,97960.16
2023-01-30T10:10:47.361Z,97958.47
2023-01-30T10:13:39.353Z,97950.50
2023-01-30T10:16:18.453Z,97942.09
2023-01-30T10:19:34.780Z,97939.38
2023-01-30T10:22:17.883Z,97945.09
2023-01-30T10:24:57.712Z,97942.09
2023-01-30T10:27:31.996Z,97941.19
2023-01-30T10:30:03.962Z,97938.31
2023-01-30T10:32:42.450Z,97936.66
2023-01-30T10:35:20.106Z,97926.72
2023-01-30T10:37:57.358Z,97928.25
2023-01-30T10:40:32.385Z,97911.09
2023-01-30T10:43:07.602Z,97905.69
2023-01-30T10:45:52.093Z,97903.25
2023-01-30T10:48:48.480Z,97891.53
2023-01-30T10:51:26.297Z,97883.25
2023-01-30T10:54:00.644Z,97891.53
2023-01-30T10:56:38.520Z,97890.63
2023-01-30T10:59:23.424Z,97887.63
2023-01-30T11:02:01.585Z,97883.25
2023-01-30T11:04:35.240Z,97887.63
2023-01-30T11:07:05.340Z,97869.72
2023-01-30T11:09:42.094Z,97880.41
2023-01-30T11:12:11.685Z,97877.13
2023-01-30T11:14:56.634Z,97875.13
2023-01-30T11:17:32.379Z,97862.19
2023-01-30T11:20:07.591Z,97873.78
2023-01-30T11:22:36.831Z,97860.25
2023-01-30T11:25:12.709Z,97853.03
2023-01-30T11:27:44.545Z,97855.28
2023-01-30T11:30:20.955Z,97849.41
2023-01-30T11:32:51.617Z,97853.63
2023-01-30T11:35:29.049Z,97855.13
2023-01-30T11:38:13.724Z,97848.78
2023-01-30T11:40:42.924Z,97844.16
2023-01-30T11:43:15.011Z,97840.97
2023-01-30T11:45:51.002Z,97837.50
2023-01-30T11:49:01.483Z,97834.81
2023-01-30T11:51:12.715Z,97831.94
2023-01-30T11:53:46.340Z,97838.25
2023-01-30T11:56:23.958Z,97840.69
2023-01-30T11:58:59.404Z,97827.44
2023-01-30T12:01:31.887Z,97843.69
2023-01-30T12:04:01.840Z,97833.31
2023-01-30T12:06:33.253Z,97830.47
2023-01-30T12:09:02.584Z,97835.72
2023-01-30T12:11:45.091Z,97836.03
2023-01-30T12:14:24.380Z,97827.75
2023-01-30T12:17:01.960Z,97821.31
2023-01-30T12:19:52.662Z,97816.34
2023-01-30T12:22:27.704Z,97813.50
2023-01-30T12:25:01.340Z,97812.88
2023-01-30T12:27:51.676Z,97807.03
2023-01-30T12:30:28.152Z,97806.59
2023-01-30T12:36:14.766Z,97806.13
2023-01-30T12:38:57.587Z,97800.44
2023-01-30T12:41:53.722Z,97798.31
2023-01-30T12:44:40.171Z,97792.28
2023-01-30T12:47:23.453Z,97791.56
2023-01-30T12:50:07.031Z,97787.94
2023-01-30T12:52:53.165Z,97786.91
2023-01-30T12:55:37.969Z,97790.81
2023-01-30T12:58:16.059Z,97787.94
2023-01-30T13:01:10.541Z,97787.81
2023-01-30T13:03:46.019Z,97782.38
2023-01-30T13:06:31.774Z,97779.66
2023-01-30T13:09:08.585Z,97771.53
2023-01-30T13:11:49.851Z,97767.06
2023-01-30T13:14:28.322Z,97772.16
2023-01-30T13:17:15.051Z,97756.97
2023-01-30T13:19:50.281Z,97757.88
2023-01-30T13:22:25.920Z,97756.22
2023-01-30T13:25:05.269Z,97753.81
2023-01-30T13:27:38.483Z,97750.19
2023-01-30T13:30:11.048Z,97748.41
2023-01-30T13:32:43.158Z,97744.81
2023-01-30T13:35:24.462Z,97747.50
2023-01-30T13:37:55.799Z,97745.84
2023-01-30T13:40:27.275Z,97746.91
2023-01-30T13:43:00.430Z,97739.97
2023-01-30T13:45:33.319Z,97749.31
2023-01-30T13:48:21.752Z,97734.88
2023-01-30T13:51:02.231Z,97737.59
2023-01-30T13:53:43.360Z,97723.47
2023-01-30T13:56:40.226Z,97735.19
2023-01-30T13:59:17.359Z,97733.53
2023-01-30T14:02:25.629Z,97722.41
2023-01-30T14:04:55.588Z,97719.84
2023-01-30T14:07:31.215Z,97725.25
2023-01-30T14:10:20.619Z,97714.13
2023-01-30T14:12:52.709Z,97714.28
2023-01-30T14:15:29.140Z,97704.81
2023-01-30T14:18:00.288Z,97707.22
2023-01-30T14:20:31.317Z,97702.88
2023-01-30T14:23:01.984Z,97701.19
2023-01-30T14:25:45.181Z,97700.56
2023-01-30T14:28:49.835Z,97699.97
2023-01-30T14:31:52.765Z,97701.19
2023-01-30T14:34:41.582Z,97700.41
2023-01-30T14:37:50.829Z,97695.72
2023-01-30T14:41:08.079Z,97696.63
2023-01-30T14:43:53.081Z,97699.00
2023-01-30T14:46:54.264Z,97694.97
2023-01-30T14:49:33.206Z,97694.50
2023-01-30T14:52:04.616Z,97693.09
2023-01-30T14:54:42.415Z,97690.53
2023-01-30T14:57:24.333Z,97688.44
2023-01-30T15:02:53.391Z,97681.41
2023-01-30T15:05:29.218Z,97682.44
2023-01-30T15:08:03.941Z,97682.72
2023-01-30T15:10:52.455Z,97677.28
2023-01-30T15:13:40.796Z,97684.22
2023-01-30T15:16:25.695Z,97681.38
2023-01-30T15:19:17.525Z,97676.06
2023-01-30T15:22:13.503Z,97685.66
2023-01-30T15:25:11.610Z,97679.66
2023-01-30T15:28:03.390Z,97675.19
2023-01-30T15:30:46.470Z,97682.09
2023-01-30T15:33:29.365Z,97674.25
2023-01-30T15:36:00.191Z,97665.84
2023-01-30T15:38:31.782Z,97668.53
2023-01-30T15:41:03.641Z,97664.00
2023-01-30T15:43:54.907Z,97676.78
2023-01-30T15:46:34.479Z,97670.06
2023-01-30T15:49:38.932Z,97671.84
2023-01-30T15:52:16.687Z,97669.84
2023-01-30T15:54:51.435Z,97672.28
2023-01-30T15:57:25.726Z,97670.16
2023-01-30T15:59:56.811Z,97670.31
2023-01-30T16:02:32.246Z,97665.22
2023-01-30T16:05:16.305Z,97660.69
2023-01-30T16:07:49.455Z,97664.72
2023-01-30T16:10:21.084Z,97656.63
2023-01-30T16:12:53.211Z,97652.28
2023-01-30T16:15:31.766Z,97648.00
2023-01-30T16:18:05.763Z,97641.41
2023-01-30T16:21:00.234Z,97648.66
2023-01-30T16:23:36.833Z,97637.22
2023-01-30T16:26:08.791Z,97644.75
2023-01-30T16:28:38.290Z,97644.00
2023-01-30T16:31:09.776Z,97646.41
2023-01-30T16:33:39.897Z,97647.78
2023-01-30T16:36:41.312Z,97642.81
2023-01-30T16:39:32.463Z,97650.50
2023-01-30T16:42:03.812Z,97649.31
2023-01-30T16:44:34.553Z,97638.91
2023-01-30T16:47:06.337Z,97636.13
2023-01-30T16:49:47.779Z,97644.91
2023-01-30T16:52:24.119Z,97630.59
2023-01-30T16:54:57.821Z,97639.78
2023-01-30T16:57:37.983Z,97643.25
2023-01-30T17:00:21.676Z,97647.16
2023-01-30T17:02:53.214Z,97641.44
2023-01-30T17:05:24.953Z,97644.75
2023-01-30T17:07:56.646Z,97642.47
2023-01-30T17:10:57.793Z,97642.06
2023-01-30T17:13:38.248Z,97637.53
2023-01-30T17:16:27.905Z,97630.59
2023-01-30T17:18:58.411Z,97632.53
2023-01-30T17:21:30.921Z,97632.84
2023-01-30T17:24:03.677Z,97629.25
2023-01-30T17:26:35.380Z,97627.72
2023-01-30T17:29:07.210Z,97622.19
2023-01-30T17:31:39.563Z,97620.06
2023-01-30T17:34:09.437Z,97624.44
2023-01-30T17:36:42.579Z,97620.66
2023-01-30T17:39:14.646Z,97632.66
2023-01-30T17:41:46.057Z,97623.97
2023-01-30T17:44:18.029Z,97631.63
2023-01-30T17:46:50.835Z,97627.72
2023-01-30T17:49:22.103Z,97634.38
2023-01-30T17:51:53.254Z,97634.81
2023-01-30T17:54:22.764Z,97644.44
2023-01-30T17:57:00.807Z,97644.00
2023-01-30T17:59:31.244Z,97645.94
2023-01-30T18:02:01.455Z,97647.28
2023-01-30T18:04:31.317Z,97636.16
2023-01-30T18:07:04.749Z,97643.53
2023-01-30T18:09:34.114Z,97649.06
2023-01-30T18:12:05.260Z,97650.91
2023-01-30T18:14:34.592Z,97648.34
2023-01-30T18:17:04.012Z,97646.41
2023-01-30T18:19:33.223Z,97650.75
2023-01-30T18:22:02.360Z,97652.41
2023-01-30T18:24:31.416Z,97643.28
2023-01-30T18:27:01.896Z,97647.22
2023-01-30T18:29:32.781Z,97644.03
2023-01-30T18:32:06.053Z,97645.38
2023-01-30T18:34:35.606Z,97642.63
2023-01-30T18:37:04.729Z,97638.25
2023-01-30T18:39:34.961Z,97638.72
2023-01-30T18:42:04.273Z,97651.38
2023-01-30T18:44:35.890Z,97645.84
2023-01-30T18:47:05.428Z,97639.81
2023-01-30T18:49:34.628Z,97640.28
2023-01-30T18:52:03.828Z,97645.84
2023-01-30T18:54:37.826Z,97658.00
2023-01-30T18:57:07.442Z,97650.63
2023-01-30T18:59:39.783Z,97661.00
2023-01-30T19:02:09.133Z,97653.19
2023-01-30T19:04:38.303Z,97658.00
2023-01-30T19:07:08.420Z,97656.22
2023-01-30T19:09:37.727Z,97654.97
2023-01-30T19:12:25.092Z,97659.66
2023-01-30T19:14:55.724Z,97663.75
2023-01-30T19:17:25.026Z,97647.16
2023-01-30T19:20:08.918Z,97645.84
2023-01-30T19:22:38.760Z,97650.69
2023-01-30T19:25:08.982Z,97653.22
2023-01-30T19:27:39.206Z,97657.88
2023-01-30T19:30:12.411Z,97650.50
2023-01-30T19:32:42.737Z,97649.91
2023-01-30T19:35:12.119Z,97655.03
2023-01-30T19:37:41.275Z,97645.69
2023-01-30T19:40:15.225Z,97649.44
2023-01-30T19:42:44.812Z,97642.66
2023-01-30T19:45:17.484Z,97658.00
2023-01-30T19:47:46.989Z,97636.84
2023-01-30T19:50:16.928Z,97642.09
2023-01-30T19:52:47.443Z,97640.63
2023-01-30T19:55:18.868Z,97644.69
2023-01-30T19:57:49.460Z,97639.13
2023-01-30T20:00:22.463Z,97639.94
2023-01-30T20:02:52.746Z,97651.66
2023-01-30T20:05:21.963Z,97651.25
2023-01-30T20:07:51.366Z,97647.97
2023-01-30T20:10:21.086Z,97649.19
2023-01-30T20:12:50.416Z,97650.38
2023-01-30T20:15:21.008Z,97656.72
2023-01-30T20:17:50.125Z,97651.91
2023-01-30T20:20:19.602Z,97665.63
2023-01-30T20:22:49.265Z,97655.22
2023-01-30T20:25:18.625Z,97658.09
2023-01-30T20:27:47.642Z,97655.25
2023-01-30T20:30:19.847Z,97661.59
2023-01-30T20:32:50.673Z,97661.28
2023-01-30T20:35:19.691Z,97660.66
2023-01-30T20:37:48.760Z,97662.00
2023-01-30T20:40:19.196Z,97664.00
2023-01-30T20:42:48.995Z,97668.94
2023-01-30T20:45:18.184Z,97664.44
2023-01-30T20:47:47.197Z,97663.09
2023-01-30T20:50:18.720Z,97656.94
2023-01-30T20:52:51.713Z,97661.16
2023-01-30T20:55:21.350Z,97659.94
2023-01-30T20:57:50.562Z,97658.16
2023-01-30T21:00:20.574Z,97662.19
2023-01-30T21:02:52.476Z,97656.78
2023-01-30T21:05:23.103Z,97647.34
2023-01-30T21:07:52.141Z,97654.84
2023-01-30T21:10:28.628Z,97657.09
2023-01-30T21:12:57.619Z,97654.38
2023-01-30T21:15:26.901Z,97653.03
2023-01-30T21:17:56.299Z,97659.81
2023-01-30T21:20:26.643Z,97667.59
2023-01-30T21:22:55.560Z,97663.84
2023-01-30T21:25:24.605Z,97663.25
2023-01-30T21:27:53.608Z,97661.28
2023-01-30T21:30:22.661Z,97657.84
2023-01-30T21:32:51.663Z,97656.03
2023-01-30T21:35:21.135Z,97660.25
2023-01-30T21:38:08.938Z,97660.38
2023-01-30T21:40:55.253Z,97664.16
2023-01-30T21:43:24.386Z,97663.41
2023-01-30T21:45:59.333Z,97665.19
2023-01-30T21:48:28.216Z,97660.09
2023-01-30T21:50:58.907Z,97658.47
2023-01-30T21:53:33.572Z,97655.75
2023-01-30T21:56:02.565Z,97664.16
2023-01-30T21:58:32.560Z,97656.19
2023-01-30T22:01:06.857Z,97661.28
2023-01-30T22:03:36.605Z,97662.19
2023-01-30T22:06:08.665Z,97665.63
2023-01-30T22:08:40.073Z,97666.25
2023-01-30T22:11:10.285Z,97668.50
2023-01-30T22:13:40.946Z,97668.19
2023-01-30T22:16:12.373Z,97669.13
2023-01-30T22:18:44.279Z,97672.25
2023-01-30T22:21:16.075Z,97672.41
2023-01-30T22:23:49.514Z,97669.88
2023-01-30T22:26:19.867Z,97676.31
2023-01-30T22:28:49.552Z,97671.22
2023-01-30T22:31:20.569Z,97672.84
2023-01-30T22:33:51.870Z,97670.47
2023-01-30T22:36:21.648Z,97666.25
2023-01-30T22:38:52.556Z,97666.56
2023-01-30T22:41:23.599Z,97668.19
2023-01-30T22:43:55.533Z,97667.16
2023-01-30T22:46:26.132Z,97670.47
2023-01-30T22:48:56.079Z,97661.28
2023-01-30T22:51:27.441Z,97668.19
2023-01-30T22:53:59.816Z,97658.59
2023-01-30T22:56:30.809Z,97667.59
2023-01-30T22:59:00.114Z,97656.94
2023-01-30T23:01:30.661Z,97660.97
2023-01-30T23:04:01.261Z,97662.06
2023-01-30T23:06:31.529Z,97666.84
2023-01-30T23:09:02.635Z,97665.78
2023-01-30T23:11:34.191Z,97677.50
2023-01-30T23:14:08.322Z,97663.69
2023-01-30T23:16:39.175Z,97669.72
2023-01-30T23:19:08.570Z,97670.59
2023-01-30T23:21:39.300Z,97665.50
2023-01-30T23:24:12.871Z,97667.00
2023-01-30T23:26:45.141Z,97669.41
2023-01-30T23:29:16.469Z,97670.88
2023-01-30T23:31:48.418Z,97675.09
2023-01-30T23:34:19.204Z,97673.59
2023-01-30T23:36:48.200Z,97665.19
2023-01-30T23:39:18.795Z,97661.56
2023-01-30T23:41:47.824Z,97658.00
2023-01-30T23:44:16.818Z,97662.47
2023-01-30T23:46:45.806Z,97662.78
2023-01-30T23:49:16.169Z,97665.31
2023-01-30T23:51:45.769Z,97659.16
2023-01-30T23:54:15.744Z,97655.88
2023-01-30T23:56:46.326Z,97659.16
2023-01-30T23:59:16.428Z,97662.78
